Time;durP1;ratioP1;P1;durP2;ratioP2;P2;SDS_P1;SDS_P2;PMS_P1;PMS_P2;Temp;Humidity;BMP_temperature;BMP_pressure;BME280_temperature;BME280_humidity;BME280_pressure;Samples;Min_cycle;Max_cycle;Signal;HPM_P1;HPM_P2
2023/07/07 00:01:49;;;;;;;4.75;3.03;;;16.40;94.00;;;;;;5058297;28;20073;-62
2023/07/07 00:04:15;;;;;;;4.28;2.90;;;16.30;94.00;;;;;;5066767;28;20056;-62
2023/07/07 00:06:41;;;;;;;5.88;3.53;;;16.30;93.70;;;;;;5056778;28;20102;-62
2023/07/07 00:09:06;;;;;;;9.70;3.17;;;16.20;93.50;;;;;;5052242;28;20037;-62
2023/07/07 00:11:32;;;;;;;3.58;2.80;;;16.20;93.60;;;;;;5055215;28;20024;-62
2023/07/07 00:13:57;;;;;;;5.15;3.00;;;16.10;93.50;;;;;;5064837;28;20441;-62
2023/07/07 00:16:27;;;;;;;4.93;3.00;;;16.10;93.70;;;;;;5055057;28;20442;-62
2023/07/07 00:18:54;;;;;;;4.55;3.17;;;16.00;93.80;;;;;;5056395;28;20028;-62
2023/07/07 00:21:24;;;;;;;5.75;3.50;;;15.90;93.80;;;;;;5057534;28;20426;-62
2023/07/07 00:23:54;;;;;;;4.57;3.07;;;15.80;94.00;;;;;;5063259;28;20056;-62
2023/07/07 00:26:21;;;;;;;5.28;3.42;;;15.80;94.20;;;;;;5048849;28;20024;-62
2023/07/07 00:28:47;;;;;;;6.00;3.08;;;15.80;95.20;;;;;;5066415;28;20044;-63
2023/07/07 00:31:14;;;;;;;4.55;2.97;;;15.70;96.90;;;;;;5065243;28;20033;-63
2023/07/07 00:33:40;;;;;;;3.33;2.88;;;15.70;99.10;;;;;;5059151;28;20096;-62
2023/07/07 00:36:09;;;;;;;7.38;3.80;;;;;;;;;;5060663;28;20144;-62
2023/07/07 00:38:35;;;;;;;5.68;3.15;;;;;;;;;;5062333;28;20078;-63
2023/07/07 00:41:02;;;;;;;5.55;3.00;;;;;;;;;;5061753;28;20051;-62
2023/07/07 00:43:31;;;;;;;5.00;2.90;;;;;;;;;;5057417;28;20062;-63
2023/07/07 00:46:00;;;;;;;4.25;2.90;;;;;;;;;;5071011;28;20372;-62
2023/07/07 00:48:39;;;;;;;4.10;2.88;;;;;;;;;;5060190;28;20064;-63
2023/07/07 00:51:15;;;;;;;3.90;3.05;;;;;;;;;;5058502;28;20040;-63
2023/07/07 00:53:45;;;;;;;4.90;3.58;;;15.50;92.80;;;;;;5053086;28;20245;-63
2023/07/07 00:56:35;;;;;;;6.00;3.50;;;15.30;93.40;;;;;;5061822;28;20437;-63
2023/07/07 00:59:04;;;;;;;4.43;3.22;;;15.30;93.80;;;;;;5063278;28;20063;-63
2023/07/07 01:01:32;;;;;;;8.48;2.83;;;15.20;94.10;;;;;;5057696;28;20079;-63
2023/07/07 01:04:02;;;;;;;7.20;3.10;;;15.20;99.90;;;;;;5069462;28;20020;-63
2023/07/07 01:06:34;;;;;;;5.00;3.30;;;15.20;99.90;;;;;;5059519;28;20116;-63
2023/07/07 01:09:04;;;;;;;5.70;3.30;;;15.10;99.90;;;;;;5056584;28;20025;-63
2023/07/07 01:11:34;;;;;;;4.85;3.10;;;15.00;99.90;;;;;;5045671;28;20046;-63
2023/07/07 01:14:04;;;;;;;5.90;3.80;;;15.00;99.90;;;;;;5065182;28;20052;-63
2023/07/07 01:16:43;;;;;;;5.47;3.00;;;15.00;99.90;;;;;;5057308;28;20282;-63
2023/07/07 01:19:44;;;;;;;4.53;3.27;;;15.00;99.90;;;;;;5055216;28;20024;-63
2023/07/07 01:22:37;;;;;;;;;;;14.90;99.90;;;;;;5051480;28;20449;-63
2023/07/07 01:25:42;;;;;;;4.00;3.20;;;14.90;99.90;;;;;;5058126;28;19995;-63
2023/07/07 01:28:43;;;;;;;4.22;2.72;;;14.90;99.90;;;;;;5053374;28;20025;-63
2023/07/07 01:31:12;;;;;;;3.90;2.80;;;14.80;99.90;;;;;;5063430;28;20025;-63
2023/07/07 01:33:39;;;;;;;4.80;3.33;;;14.80;99.90;;;;;;5065122;28;20021;-63
2023/07/07 01:36:07;;;;;;;8.25;3.83;;;14.80;99.90;;;;;;5059683;28;20016;-63
2023/07/07 01:38:44;;;;;;;5.82;3.10;;;14.70;99.90;;;;;;5061734;28;20095;-63
2023/07/07 01:41:13;;;;;;;6.88;3.22;;;14.70;99.90;;;;;;5055074;28;20044;-63
2023/07/07 01:43:58;;;;;;;4.85;3.28;;;14.70;99.90;;;;;;5059165;28;20024;-63
2023/07/07 01:46:58;;;;;;;7.22;3.17;;;14.70;99.90;;;;;;5066771;28;20108;-63
2023/07/07 01:49:30;;;;;;;6.20;3.40;;;14.70;99.90;;;;;;5049833;28;20063;-63
2023/07/07 01:52:29;;;;;;;5.75;3.25;;;14.70;99.90;;;;;;5054788;28;20458;-63
2023/07/07 01:55:00;;;;;;;5.68;3.28;;;14.70;99.90;;;;;;5064513;28;20021;-63
2023/07/07 01:57:34;;;;;;;5.50;3.35;;;14.70;99.90;;;;;;5048554;28;20032;-63
2023/07/07 02:00:03;;;;;;;5.63;3.78;;;14.70;99.90;;;;;;5055698;28;20477;-63
2023/07/07 02:02:37;;;;;;;5.90;3.42;;;14.70;99.90;;;;;;5064735;28;20094;-63
2023/07/07 02:05:07;;;;;;;6.50;3.17;;;14.70;99.90;;;;;;5059714;28;20028;-63
2023/07/07 02:07:32;;;;;;;5.72;3.53;;;14.60;99.90;;;;;;5070380;28;20360;-63
2023/07/07 02:09:58;;;;;;;7.47;3.33;;;14.60;99.90;;;;;;5060635;28;20032;-63
2023/07/07 02:12:26;;;;;;;4.93;3.38;;;14.60;99.90;;;;;;5067589;28;20024;-63
2023/07/07 02:14:54;;;;;;;5.60;3.63;;;14.60;99.90;;;;;;5059637;28;20036;-63
2023/07/07 02:17:28;;;;;;;4.15;3.22;;;14.50;99.90;;;;;;5057439;28;20021;-63
2023/07/07 02:19:55;;;;;;;5.10;3.40;;;14.50;99.90;;;;;;5059416;28;20461;-62
2023/07/07 02:22:24;;;;;;;5.57;3.53;;;;;;;;;;5063356;28;20021;-62
2023/07/07 02:24:52;;;;;;;7.35;3.42;;;;;;;;;;5053834;28;20029;-63
2023/07/07 02:27:21;;;;;;;5.65;3.60;;;;;;;;;;5056537;28;20096;-63
2023/07/07 02:29:47;;;;;;;6.13;3.92;;;;;;;;;;5066863;28;20028;-63
2023/07/07 02:32:13;;;;;;;6.82;4.15;;;;;;;;;;5059635;28;20473;-62
2023/07/07 02:34:47;;;;;;;6.03;3.70;;;;;;;;;;5053482;28;20025;-63
2023/07/07 02:37:19;;;;;;;4.70;3.72;;;;;;;;;;5060394;28;20024;-63
2023/07/07 02:39:46;;;;;;;4.97;3.38;;;;;;;;;;5063125;28;20078;-63
2023/07/07 02:42:20;;;;;;;6.50;4.00;;;;;;;;;;5054850;28;20041;-63
2023/07/07 02:44:46;;;;;;;6.60;3.78;;;;;;;;;;5064146;28;20025;-63
2023/07/07 02:47:12;;;;;;;5.00;3.40;;;;;;;;;;5061909;28;20053;-63
2023/07/07 02:49:40;;;;;;;9.35;3.80;;;;;;;;;;5059492;28;20024;-63
2023/07/07 02:52:07;;;;;;;6.30;4.18;;;;;;;;;;5053092;28;20021;-62
2023/07/07 02:54:33;;;;;;;7.63;3.78;;;;;;;;;;5061889;28;20069;-63
2023/07/07 02:56:59;;;;;;;7.15;3.80;;;;;;;;;;5060085;28;20051;-62
2023/07/07 02:59:25;;;;;;;6.88;3.90;;;;;;;;;;5040111;28;20025;-63
2023/07/07 03:01:54;;;;;;;8.82;4.30;;;;;;;;;;5059169;28;20237;-62
2023/07/07 03:04:20;;;;;;;5.45;3.33;;;;;;;;;;5065624;28;20027;-63
2023/07/07 03:06:47;;;;;;;5.18;3.90;;;;;;;;;;5057303;28;20469;-63
2023/07/07 03:09:13;;;;;;;5.68;3.63;;;;;;;;;;5055952;28;20044;-64
2023/07/07 03:11:42;;;;;;;5.82;3.60;;;;;;;;;;5068069;28;20009;-63
2023/07/07 03:14:18;;;;;;;5.40;3.63;;;;;;;;;;5061839;28;20024;-63
2023/07/07 03:17:10;;;;;;;6.38;3.55;;;;;;;;;;5053727;28;20617;-64
2023/07/07 03:19:33;;;;;;;5.47;2.85;;;;;;;;;;5053963;28;20021;-63
2023/07/07 03:22:13;;;;;;;4.80;3.47;;;;;;;;;;5065475;28;20342;-63
2023/07/07 03:24:39;;;;;;;6.22;3.95;;;;;;;;;;5055412;28;20025;-63
2023/07/07 03:27:05;;;;;;;5.90;3.63;;;;;;;;;;5053154;28;20459;-63
2023/07/07 03:29:36;;;;;;;6.57;4.13;;;;;;;;;;5061388;28;20120;-63
2023/07/07 03:32:27;;;;;;;6.03;3.95;;;;;;;;;;5056747;28;20062;-63
2023/07/07 03:34:56;;;;;;;7.57;3.78;;;;;;;;;;5053346;28;20024;-63
2023/07/07 03:37:24;;;;;;;7.47;3.67;;;;;;;;;;5053906;28;20104;-63
2023/07/07 03:39:55;;;;;;;8.48;4.22;;;;;;;;;;5062514;28;20500;-62
2023/07/07 03:42:33;;;;;;;6.82;3.90;;;;;;;;;;5054368;28;20090;-64
2023/07/07 03:45:30;;;;;;;5.68;4.00;;;;;;;;;;5064521;28;20020;-63
2023/07/07 03:47:59;;;;;;;6.15;3.90;;;;;;;;;;5034030;28;20056;-63
2023/07/07 03:50:31;;;;;;;8.20;3.58;;;;;;;;;;5061875;28;20025;-63
2023/07/07 03:53:03;;;;;;;5.47;3.60;;;;;;;;;;5051814;28;20017;-63
2023/07/07 03:55:32;;;;;;;4.60;3.42;;;;;;;;;;5058117;28;20016;-63
2023/07/07 03:58:01;;;;;;;4.70;3.25;;;;;;;;;;5052224;28;20021;-63
2023/07/07 09:11:38;;;;;;;11.05;5.60;;;;;;;;;;5316490;22;20048;-65
2023/07/07 09:32:47;;;;;;;10.30;6.32;;;28.10;73.80;;;;;;5189214;23;20499;-67
2023/07/07 09:35:14;;;;;;;10.13;6.07;;;28.20;73.30;;;;;;4914699;29;20036;-65
2023/07/07 09:37:48;;;;;;;24.67;7.50;;;28.40;70.30;;;;;;4903098;29;20024;-64
2023/07/07 09:40:14;;;;;;;17.35;7.20;;;28.40;69.80;;;;;;4932896;29;20112;-64
2023/07/07 09:42:55;;;;;;;7.85;7.00;;;28.60;69.00;;;;;;4935845;29;20087;-64
2023/07/07 09:45:45;;;;;;;9.00;6.65;;;28.60;66.90;;;;;;4922649;29;20063;-64
2023/07/07 09:48:26;;;;;;;10.25;6.45;;;28.70;67.60;;;;;;4921777;29;20429;-65
2023/07/07 09:51:29;;;;;;;14.88;6.32;;;28.90;67.80;;;;;;4916104;29;20063;-65
2023/07/07 09:53:55;;;;;;;13.55;6.72;;;29.00;66.90;;;;;;4927419;29;20042;-64
2023/07/07 09:56:31;;;;;;;6.93;5.97;;;29.10;66.40;;;;;;4916935;29;20107;-65
2023/07/07 09:59:10;;;;;;;10.55;6.10;;;29.20;66.50;;;;;;4915691;29;20036;-65
2023/07/07 10:01:38;;;;;;;8.73;6.70;;;29.30;66.80;;;;;;4915477;29;20036;-65
2023/07/07 10:04:13;;;;;;;10.68;6.90;;;29.40;67.00;;;;;;4915666;29;20127;-64
2023/07/07 10:06:47;;;;;;;12.70;6.80;;;29.40;67.20;;;;;;4920415;29;20043;-64
2023/07/07 10:09:14;;;;;;;8.85;6.68;;;29.50;85.70;;;;;;4915360;29;20131;-65
2023/07/07 10:11:41;;;;;;;8.43;6.35;;;29.50;83.60;;;;;;4914945;29;20040;-63
2023/07/07 10:14:11;;;;;;;10.10;6.45;;;29.50;82.90;;;;;;4916807;29;20055;-64
2023/07/07 10:16:50;;;;;;;;;;;29.60;81.40;;;;;;4914657;29;20122;-64
2023/07/07 10:19:16;;;;;;;8.85;7.43;;;29.60;74.60;;;;;;4914716;29;19950;-64
2023/07/07 10:21:42;;;;;;;8.52;6.85;;;29.70;64.90;;;;;;4922501;29;20544;-63
2023/07/07 10:24:12;;;;;;;10.98;7.07;;;29.70;69.60;;;;;;4915516;29;20031;-64
2023/07/07 10:26:39;;;;;;;7.80;6.68;;;29.80;78.80;;;;;;4914228;29;20385;-64
2023/07/07 10:29:11;;;;;;;11.13;7.80;;;29.90;65.70;;;;;;4914608;29;20103;-66
2023/07/07 10:31:42;;;;;;;10.23;8.63;;;30.00;63.90;;;;;;4916159;29;20072;-64
2023/07/07 10:34:29;;;;;;;12.40;9.95;;;30.10;63.30;;;;;;4914248;29;20047;-63
2023/07/07 10:36:56;;;;;;;12.05;8.93;;;30.10;62.30;;;;;;4910901;29;20043;-64
2023/07/07 10:39:27;;;;;;;13.23;9.60;;;30.30;62.20;;;;;;4911677;29;20047;-64
2023/07/07 10:41:52;;;;;;;11.10;8.95;;;30.40;62.30;;;;;;4914462;29;20047;-64
2023/07/07 10:44:18;;;;;;;12.40;9.25;;;30.40;62.50;;;;;;4915018;29;20031;-64
2023/07/07 10:46:43;;;;;;;10.63;8.80;;;30.50;62.80;;;;;;4911118;29;20038;-64
2023/07/07 10:49:15;;;;;;;11.25;10.05;;;30.40;62.20;;;;;;4914472;29;20024;-64
2023/07/07 10:51:53;;;;;;;13.38;11.23;;;30.40;60.90;;;;;;4914218;29;20067;-64
2023/07/07 10:54:36;;;;;;;12.10;9.38;;;30.40;61.30;;;;;;4913577;29;20433;-65
2023/07/07 10:57:28;;;;;;;10.50;8.65;;;30.50;62.00;;;;;;4915222;29;20049;-65
2023/07/07 11:00:10;;;;;;;12.55;8.00;;;30.40;62.30;;;;;;4906378;29;20111;-64
2023/07/07 11:03:16;;;;;;;12.25;8.35;;;30.40;63.00;;;;;;4914175;29;20024;-65
2023/07/07 11:05:50;;;;;;;10.73;7.95;;;30.40;63.10;;;;;;4913481;29;20084;-63
2023/07/07 11:08:26;;;;;;;12.52;8.23;;;30.50;63.00;;;;;;4914771;29;20028;-64
2023/07/07 11:11:22;;;;;;;13.00;9.20;;;30.50;61.70;;;;;;4906245;29;20032;-64
2023/07/07 11:14:01;;;;;;;16.70;10.93;;;30.50;61.30;;;;;;4913496;29;20185;-65
2023/07/07 11:16:58;;;;;;;12.15;9.82;;;30.60;60.00;;;;;;4914453;29;20028;-66
2023/07/07 11:19:31;;;;;;;13.57;10.35;;;30.80;59.90;;;;;;4908476;29;20115;-64
2023/07/07 11:22:15;;;;;;;13.20;10.23;;;31.00;59.40;;;;;;4914587;29;20404;-64
2023/07/07 11:24:46;;;;;;;11.95;9.55;;;31.20;59.40;;;;;;4912864;29;20028;-63
2023/07/07 11:27:50;;;;;;;11.68;8.77;;;31.30;58.20;;;;;;4913915;29;20040;-64
2023/07/07 11:30:45;;;;;;;10.38;8.77;;;31.40;58.90;;;;;;4913211;29;20036;-65
2023/07/07 11:33:18;;;;;;;11.18;9.18;;;31.50;58.40;;;;;;4903952;29;20052;-66
2023/07/07 11:35:56;;;;;;;12.20;9.77;;;31.60;58.00;;;;;;4912912;29;20028;-65
2023/07/07 11:38:48;;;;;;;14.73;9.43;;;31.80;57.30;;;;;;4913979;29;20079;-65
2023/07/07 11:41:37;;;;;;;13.75;8.55;;;31.90;57.50;;;;;;4906086;29;20130;-65
2023/07/07 11:44:14;;;;;;;12.27;9.23;;;32.00;57.20;;;;;;4913784;29;20028;-66
2023/07/07 11:47:28;;;;;;;11.68;8.63;;;31.70;57.20;;;;;;4913214;29;20102;-65
2023/07/07 11:50:03;;;;;;;12.65;9.18;;;31.40;57.50;;;;;;4873096;29;20040;-64
2023/07/07 11:52:28;;;;;;;11.38;9.88;;;31.30;57.60;;;;;;4873406;29;20561;-67
2023/07/07 11:55:30;;;;;;;11.88;9.15;;;31.50;57.70;;;;;;4872183;29;20052;-64
2023/07/07 11:58:13;;;;;;;12.60;9.85;;;31.80;54.70;;;;;;4874017;29;20035;-65
2023/07/07 12:01:04;;;;;;;15.57;9.10;;;32.10;54.80;;;;;;4872490;29;20124;-64
2023/07/07 12:03:43;;;;;;;12.63;9.68;;;32.30;54.70;;;;;;4872713;29;20480;-65
2023/07/07 12:06:27;;;;;;;11.07;9.27;;;32.40;54.40;;;;;;4873624;29;20179;-64
2023/07/07 12:09:10;;;;;;;13.93;9.27;;;32.50;53.30;;;;;;4866038;29;20116;-64
2023/07/07 12:11:42;;;;;;;9.98;8.98;;;32.50;52.70;;;;;;4872855;29;20037;-65
2023/07/07 12:14:19;;;;;;;13.32;9.73;;;32.50;53.20;;;;;;4872603;29;20045;-64
2023/07/07 12:16:48;;;;;;;22.65;9.93;;;32.70;52.10;;;;;;4872366;29;20545;-67
2023/07/07 12:19:24;;;;;;;12.40;9.80;;;32.70;51.20;;;;;;4873003;29;20092;-64
2023/07/07 12:21:53;;;;;;;10.30;9.20;;;32.80;51.00;;;;;;4912053;29;20091;-64
2023/07/07 12:24:38;;;;;;;15.95;9.73;;;32.80;51.00;;;;;;4912932;29;20532;-64
2023/07/07 12:27:16;;;;;;;13.02;9.77;;;32.90;52.70;;;;;;4910653;29;20047;-64
2023/07/07 12:29:45;;;;;;;23.55;9.75;;;33.00;52.30;;;;;;4910929;29;20106;-64
2023/07/07 12:32:12;;;;;;;19.20;9.20;;;33.00;52.90;;;;;;4913194;29;20106;-64
2023/07/07 12:35:01;;;;;;;12.95;9.35;;;33.00;52.80;;;;;;4910516;29;20504;-64
2023/07/07 12:37:27;;;;;;;60.25;10.73;;;33.10;52.60;;;;;;4894104;29;20075;-66
2023/07/07 12:39:58;;;;;;;10.93;9.20;;;33.20;52.60;;;;;;4909059;29;20071;-64
2023/07/07 12:42:29;;;;;;;12.25;9.52;;;33.10;52.30;;;;;;4913074;29;20032;-64
2023/07/07 12:45:05;;;;;;;16.67;9.60;;;33.20;53.10;;;;;;4912940;29;20473;-64
2023/07/07 12:47:32;;;;;;;9.68;8.55;;;33.30;53.00;;;;;;4912736;29;20024;-66
2023/07/07 12:50:01;;;;;;;10.65;8.65;;;33.20;51.90;;;;;;4912505;29;20397;-65
2023/07/07 12:52:33;;;;;;;20.03;9.13;;;33.30;52.60;;;;;;4912614;29;20115;-66
2023/07/07 12:55:18;;;;;;;14.35;8.70;;;33.50;52.30;;;;;;4912135;29;20481;-64
2023/07/07 12:57:59;;;;;;;11.05;9.07;;;33.60;51.70;;;;;;4911085;29;20103;-64
2023/07/07 13:00:32;;;;;;;13.02;9.02;;;33.60;50.80;;;;;;4912638;29;20031;-63
2023/07/07 13:03:11;;;;;;;12.57;9.30;;;33.60;51.80;;;;;;4912505;29;20036;-66
2023/07/07 13:05:48;;;;;;;13.13;9.57;;;33.50;50.50;;;;;;4911220;29;20036;-64
2023/07/07 13:08:34;;;;;;;13.88;8.85;;;33.50;51.40;;;;;;4912982;29;20118;-63
2023/07/07 13:11:11;;;;;;;11.52;9.50;;;33.30;50.90;;;;;;4908721;29;20389;-66
2023/07/07 13:13:37;;;;;;;10.85;8.80;;;33.20;50.90;;;;;;4910660;29;20028;-64
2023/07/07 13:16:10;;;;;;;11.00;9.15;;;33.40;51.30;;;;;;4912037;29;20036;-66
2023/07/07 13:18:36;;;;;;;11.18;8.45;;;33.60;50.80;;;;;;4911754;29;20029;-67
2023/07/07 13:21:02;;;;;;;11.48;8.50;;;33.60;50.80;;;;;;4912070;29;20115;-66
2023/07/07 13:23:34;;;;;;;14.95;9.48;;;;;;;;;;4908232;29;20047;-66
2023/07/07 13:26:00;;;;;;;12.40;8.70;;;33.80;51.10;;;;;;4909170;29;20100;-70
2023/07/07 13:28:26;;;;;;;15.95;8.63;;;34.00;50.80;;;;;;4915753;29;20028;-66
2023/07/07 13:30:53;;;;;;;12.80;8.82;;;34.10;50.40;;;;;;4915088;29;20040;-73
2023/07/07 13:33:22;;;;;;;14.07;9.10;;;33.90;49.90;;;;;;4914897;29;20143;-67
2023/07/07 13:35:51;;;;;;;16.27;9.18;;;33.80;50.10;;;;;;4906575;29;20607;-62
2023/07/07 13:38:20;;;;;;;11.90;9.52;;;33.90;50.00;;;;;;4915271;29;20036;-62
2023/07/07 13:40:47;;;;;;;10.27;8.68;;;34.00;49.70;;;;;;4913980;29;20028;-62
2023/07/07 13:43:48;;;;;;;12.73;9.32;;;34.10;49.60;;;;;;4915099;29;20040;-62
2023/07/07 13:46:24;;;;;;;15.25;8.73;;;34.00;49.40;;;;;;4905295;29;20032;-63
2023/07/07 13:49:00;;;;;;;10.85;8.65;;;34.10;49.30;;;;;;4914107;29;20136;-62
2023/07/07 13:51:37;;;;;;;11.05;8.52;;;34.10;49.20;;;;;;4914269;29;20054;-66
2023/07/07 13:54:05;;;;;;;10.23;8.57;;;34.20;49.00;;;;;;4914709;29;20476;-64
2023/07/07 13:56:39;;;;;;;10.45;8.77;;;34.30;49.00;;;;;;4913668;29;20139;-64
2023/07/07 13:59:14;;;;;;;13.38;8.52;;;34.30;48.60;;;;;;4915068;29;20102;-62
2023/07/07 14:01:42;;;;;;;10.80;8.35;;;34.50;49.10;;;;;;4914953;29;20104;-63
2023/07/07 14:04:13;;;;;;;16.50;8.38;;;34.70;85.60;;;;;;4914506;29;20064;-63
2023/07/07 14:06:39;;;;;;;9.90;8.65;;;34.70;84.20;;;;;;4914494;29;20020;-62
2023/07/07 14:09:22;;;;;;;9.50;8.27;;;34.70;84.60;;;;;;4897168;29;20484;-62
2023/07/07 14:11:55;;;;;;;9.93;8.07;;;34.70;84.00;;;;;;4914045;29;20091;-63
2023/07/07 14:14:22;;;;;;;10.48;8.18;;;34.60;83.80;;;;;;4914184;29;20071;-63
2023/07/07 14:16:56;;;;;;;11.82;8.55;;;34.50;84.00;;;;;;4913748;29;20032;-64
2023/07/07 14:19:48;;;;;;;9.77;8.27;;;34.50;83.60;;;;;;4895362;29;20100;-63
2023/07/07 14:22:14;;;;;;;9.85;8.20;;;34.50;84.00;;;;;;4909806;29;20059;-68
2023/07/07 14:24:40;;;;;;;9.15;7.88;;;34.70;84.10;;;;;;4913425;29;20453;-68
2023/07/07 14:27:12;;;;;;;11.02;8.90;;;34.90;83.00;;;;;;4913996;29;20032;-68
2023/07/07 14:29:40;;;;;;;12.98;8.55;;;35.20;82.30;;;;;;4912856;29;20036;-64
2023/07/07 14:32:20;;;;;;;12.68;8.70;;;35.40;48.60;;;;;;4913882;29;20059;-64
2023/07/07 14:34:51;;;;;;;10.88;8.60;;;35.60;48.30;;;;;;4911858;29;20036;-63
2023/07/07 14:37:31;;;;;;;10.13;8.48;;;35.70;48.40;;;;;;4913354;29;20397;-63
2023/07/07 14:40:00;;;;;;;10.48;8.52;;;35.80;47.40;;;;;;4913292;29;20028;-63
2023/07/07 14:42:27;;;;;;;9.85;7.40;;;;;;;;;;4914042;29;20032;-63
2023/07/07 14:44:55;;;;;;;11.52;8.02;;;35.50;83.20;;;;;;4913072;29;20533;-63
2023/07/07 14:47:26;;;;;;;12.35;7.88;;;35.50;81.80;;;;;;4913831;29;20470;-64
2023/07/07 14:49:52;;;;;;;14.00;8.05;;;35.70;81.20;;;;;;4911878;29;20032;-64
2023/07/07 14:52:41;;;;;;;11.57;7.90;;;35.90;71.30;;;;;;4913447;29;20051;-63
2023/07/07 14:55:19;;;;;;;10.48;8.30;;;35.90;71.10;;;;;;4914568;29;20024;-64
2023/07/07 14:57:53;;;;;;;12.00;8.05;;;36.00;69.00;;;;;;4911423;29;20509;-64
2023/07/07 15:00:28;;;;;;;9.52;8.07;;;36.10;67.10;;;;;;4913309;29;20031;-63
2023/07/07 15:02:54;;;;;;;12.45;8.57;;;36.30;66.50;;;;;;4912914;29;20063;-63
2023/07/07 15:05:31;;;;;;;10.85;8.00;;;36.50;65.70;;;;;;4913519;29;20437;-65
2023/07/07 15:08:12;;;;;;;10.43;8.15;;;36.60;65.60;;;;;;4913811;29;20684;-63
2023/07/07 15:10:40;;;;;;;10.60;7.60;;;36.60;69.60;;;;;;4909467;29;20028;-64
2023/07/07 15:13:09;;;;;;;7.97;6.93;;;36.70;69.70;;;;;;4913994;29;20036;-64
2023/07/07 15:15:35;;;;;;;8.15;7.35;;;;;;;;;;4913080;29;20031;-63
2023/07/07 15:18:01;;;;;;;10.10;7.75;;;37.60;45.60;;;;;;4908780;29;20040;-63
2023/07/07 15:20:26;;;;;;;15.23;7.75;;;37.60;46.10;;;;;;4913400;29;20095;-65
2023/07/07 15:22:52;;;;;;;14.98;7.50;;;37.90;45.00;;;;;;4908088;29;20059;-63
2023/07/07 15:25:18;;;;;;;12.23;8.07;;;37.90;45.20;;;;;;4909797;29;20032;-63
2023/07/07 15:27:44;;;;;;;13.15;8.73;;;38.00;45.50;;;;;;4911119;29;20444;-63
2023/07/07 15:30:15;;;;;;;8.70;7.75;;;38.00;45.10;;;;;;4912649;29;20063;-63
2023/07/07 15:32:40;;;;;;;11.43;8.05;;;38.10;45.00;;;;;;4904473;29;20059;-64
2023/07/07 15:35:15;;;;;;;8.95;7.82;;;38.20;44.70;;;;;;4913237;29;20048;-63
2023/07/07 15:37:42;;;;;;;9.10;7.80;;;38.20;44.20;;;;;;4911131;29;20070;-64
2023/07/07 15:40:21;;;;;;;8.27;7.20;;;37.90;43.90;;;;;;4909689;29;20039;-64
2023/07/07 15:42:49;;;;;;;8.07;7.28;;;37.60;43.60;;;;;;4905351;29;20067;-64
2023/07/07 15:45:15;;;;;;;9.05;7.78;;;37.40;44.00;;;;;;4906330;29;20094;-64
2023/07/07 15:47:43;;;;;;;8.93;8.02;;;37.40;44.70;;;;;;4902099;29;20028;-64
2023/07/07 15:50:28;;;;;;;9.57;8.00;;;37.40;44.20;;;;;;4912428;29;20068;-63
2023/07/07 15:52:54;;;;;;;8.23;7.35;;;37.60;44.20;;;;;;4906276;29;20084;-64
2023/07/07 15:55:20;;;;;;;9.25;7.45;;;37.60;43.80;;;;;;4912308;29;20453;-63
2023/07/07 15:57:45;;;;;;;8.82;7.22;;;37.60;44.20;;;;;;4912223;29;20043;-64
2023/07/07 16:00:31;;;;;;;9.88;7.45;;;37.80;43.30;;;;;;4912721;29;20024;-63
2023/07/07 16:02:57;;;;;;;7.55;6.85;;;37.90;42.90;;;;;;4907377;29;20036;-63
2023/07/07 16:05:23;;;;;;;9.85;7.97;;;37.80;43.60;;;;;;4912622;29;20111;-63
2023/07/07 16:07:49;;;;;;;9.45;7.78;;;37.80;43.00;;;;;;4912548;29;20620;-64
2023/07/07 16:10:15;;;;;;;8.13;7.32;;;37.70;43.20;;;;;;4912349;29;20032;-65
2023/07/07 16:12:41;;;;;;;12.02;7.57;;;37.40;42.70;;;;;;4910960;29;20063;-64
2023/07/07 16:15:08;;;;;;;9.30;8.10;;;37.10;43.40;;;;;;4907488;29;20048;-63
2023/07/07 16:17:34;;;;;;;8.55;7.18;;;36.90;43.80;;;;;;4904928;29;20028;-64
2023/07/07 16:20:20;;;;;;;9.70;7.47;;;36.90;43.90;;;;;;4911769;29;20118;-63
2023/07/07 16:22:47;;;;;;;8.10;7.20;;;36.90;43.50;;;;;;4912011;29;20098;-65
2023/07/07 16:25:13;;;;;;;11.27;6.72;;;36.90;43.70;;;;;;4911901;29;20035;-63
2023/07/07 16:27:39;;;;;;;8.35;7.50;;;37.00;43.90;;;;;;4911796;29;20028;-63
2023/07/07 16:30:11;;;;;;;8.63;6.93;;;37.10;43.40;;;;;;4912404;29;20036;-64
2023/07/07 16:32:36;;;;;;;7.68;6.88;;;37.10;43.40;;;;;;4911523;29;20115;-64
2023/07/07 16:35:02;;;;;;;10.02;7.60;;;37.10;43.60;;;;;;4907327;29;20024;-63
2023/07/07 16:37:28;;;;;;;7.50;6.80;;;37.10;43.80;;;;;;4913749;29;20035;-66
2023/07/07 16:39:53;;;;;;;9.38;7.47;;;37.20;43.50;;;;;;4912198;29;20076;-64
2023/07/07 16:42:19;;;;;;;10.15;8.00;;;37.20;43.20;;;;;;4913408;29;20043;-63
2023/07/07 16:44:44;;;;;;;8.70;7.03;;;37.20;43.10;;;;;;4912365;29;20084;-65
2023/07/07 16:47:11;;;;;;;10.50;6.65;;;37.20;43.10;;;;;;4913223;29;20124;-63
2023/07/07 16:49:36;;;;;;;10.10;7.38;;;37.30;43.00;;;;;;4908986;29;20042;-65
2023/07/07 16:52:02;;;;;;;8.18;6.63;;;37.30;43.60;;;;;;4911490;29;20118;-64
2023/07/07 16:54:28;;;;;;;8.18;7.00;;;37.30;43.30;;;;;;4913026;29;20465;-65
2023/07/07 16:56:53;;;;;;;10.75;7.22;;;37.20;43.00;;;;;;4907708;29;20028;-63
2023/07/07 16:59:19;;;;;;;8.43;6.95;;;37.00;42.90;;;;;;4914157;29;20484;-64
2023/07/07 17:01:46;;;;;;;8.85;7.18;;;36.50;43.10;;;;;;4915988;29;20028;-64
2023/07/07 17:04:12;;;;;;;7.43;6.72;;;36.00;43.80;;;;;;4916741;29;20118;-63
2023/07/07 17:06:38;;;;;;;7.65;6.85;;;35.50;44.40;;;;;;4916870;29;20462;-63
2023/07/07 17:09:19;;;;;;;9.35;6.97;;;35.00;44.90;;;;;;4916004;29;20700;-62
2023/07/07 17:11:45;;;;;;;7.15;6.07;;;34.60;44.40;;;;;;4916187;29;20032;-63
2023/07/07 17:14:10;;;;;;;10.23;7.63;;;34.20;44.80;;;;;;4916249;29;20039;-64
2023/07/07 17:16:36;;;;;;;9.55;7.60;;;33.90;45.00;;;;;;4915854;29;20079;-64
2023/07/07 17:19:18;;;;;;;8.65;6.60;;;33.70;45.80;;;;;;4916357;29;20054;-68
2023/07/07 17:21:43;;;;;;;12.45;7.97;;;33.40;45.10;;;;;;4915176;29;20027;-65
2023/07/07 17:24:09;;;;;;;10.35;7.78;;;33.10;45.30;;;;;;4915888;29;20778;-66
2023/07/07 17:26:36;;;;;;;11.18;7.18;;;32.90;45.30;;;;;;4917045;29;20024;-65
2023/07/07 17:29:02;;;;;;;10.02;6.60;;;32.70;45.20;;;;;;4917056;29;20036;-65
2023/07/07 17:31:31;;;;;;;10.20;6.75;;;32.50;45.50;;;;;;4916989;29;20512;-66
2023/07/07 17:33:56;;;;;;;10.25;6.38;;;32.30;45.70;;;;;;4916430;29;20493;-66
2023/07/07 17:36:23;;;;;;;8.65;7.15;;;32.20;46.30;;;;;;4917513;29;20043;-66
2023/07/07 17:38:50;;;;;;;7.90;6.57;;;32.10;46.10;;;;;;4916064;29;20036;-65
2023/07/07 17:41:17;;;;;;;9.10;6.80;;;31.90;46.30;;;;;;4916784;29;20390;-65
2023/07/07 17:43:43;;;;;;;10.27;7.22;;;31.80;46.70;;;;;;4915924;29;20044;-65
2023/07/07 17:46:20;;;;;;;14.07;6.85;;;31.60;46.70;;;;;;4917755;29;20101;-65
2023/07/07 17:48:46;;;;;;;12.35;6.68;;;31.30;45.90;;;;;;4916010;29;20138;-65
2023/07/07 17:51:11;;;;;;;8.88;6.18;;;31.30;46.60;;;;;;4917111;29;20393;-66
2023/07/07 17:53:37;;;;;;;11.52;7.28;;;31.10;46.80;;;;;;4915771;29;20059;-66
2023/07/07 17:56:04;;;;;;;8.85;6.10;;;31.10;47.00;;;;;;4916815;29;20032;-66
2023/07/07 17:58:29;;;;;;;8.77;6.53;;;30.90;47.30;;;;;;4915773;29;20039;-66
2023/07/07 18:00:55;;;;;;;7.75;6.00;;;30.90;47.40;;;;;;4917088;29;20107;-66
2023/07/07 18:03:20;;;;;;;8.48;6.50;;;30.70;47.60;;;;;;4916797;29;20040;-66
2023/07/07 18:05:46;;;;;;;10.55;6.32;;;30.60;47.80;;;;;;4915781;29;20055;-65
2023/07/07 18:08:14;;;;;;;12.63;6.72;;;30.60;47.90;;;;;;4916986;29;20063;-66
2023/07/07 18:10:40;;;;;;;9.77;7.32;;;30.50;48.20;;;;;;4911651;29;20076;-66
2023/07/07 18:13:06;;;;;;;12.35;7.55;;;30.40;48.50;;;;;;4902729;29;20121;-66
2023/07/07 18:15:32;;;;;;;673.03;433.88;;;30.30;49.00;;;;;;4912878;29;20032;-66
2023/07/07 18:17:58;;;;;;;32.63;23.02;;;30.30;48.90;;;;;;4910200;29;20059;-65
2023/07/07 18:20:29;;;;;;;12.73;7.93;;;30.20;48.90;;;;;;4916131;29;20470;-65
2023/07/07 18:22:55;;;;;;;10.40;7.40;;;30.10;49.00;;;;;;4916438;29;20036;-65
2023/07/07 18:25:20;;;;;;;9.13;6.65;;;30.00;49.60;;;;;;4915838;29;20028;-66
2023/07/07 18:27:46;;;;;;;7.78;6.97;;;29.90;49.90;;;;;;4915518;29;20035;-66
2023/07/07 18:30:19;;;;;;;8.05;6.88;;;29.70;50.30;;;;;;4916276;29;20024;-65
2023/07/07 18:32:45;;;;;;;11.77;7.00;;;29.60;50.60;;;;;;4915109;29;20052;-65
2023/07/07 18:35:10;;;;;;;12.48;7.85;;;29.50;51.10;;;;;;4909611;29;20028;-65
2023/07/07 18:37:36;;;;;;;10.65;7.38;;;29.40;51.00;;;;;;4915793;29;20389;-66
2023/07/07 18:40:04;;;;;;;10.02;6.78;;;29.30;51.20;;;;;;4916064;29;20028;-65
2023/07/07 18:42:30;;;;;;;9.68;7.10;;;29.10;51.30;;;;;;4916005;29;20043;-67
2023/07/07 18:44:55;;;;;;;11.50;7.75;;;29.00;51.70;;;;;;4898383;29;20040;-66
2023/07/07 18:47:21;;;;;;;11.43;7.28;;;28.90;52.00;;;;;;4916216;29;20024;-66
2023/07/07 18:49:46;;;;;;;10.15;7.68;;;28.80;52.10;;;;;;4915019;29;20663;-66
2023/07/07 18:52:13;;;;;;;10.98;7.75;;;28.70;52.30;;;;;;4912453;29;20036;-65
2023/07/07 18:54:39;;;;;;;10.20;7.13;;;28.60;52.70;;;;;;4914511;29;20040;-65